Date,TemperatureHighF,TemperatureAvgF,TemperatureLowF,DewpointHighF,DewpointAvgF,DewpointLowF,HumidityHigh,HumidityAvg,HumidityLow,PressureMaxIn,PressureMinIn,WindSpeedMaxMPH,WindSpeedAvgMPH,GustSpeedMaxMPH,PrecipitationSumIn
2013-1-1,34.7,16.7,5.7,16.6,6.6,-2.1,75,65,44,30.29,30.10,6,1,9,0.00
2013-1-2,32.7,12.2,0.0,17.0,5.4,-1.2,75,58,46,30.29,30.20,4,1,7,0.00
2013-1-3,31.3,11.6,6.6,13.1,2.0,-1.8,74,65,46,30.24,30.17,6,1,9,0.00
2013-1-4,34.2,15.5,1.0,14.4,4.2,-8.8,73,61,43,30.27,30.18,5,1,8,0.00
2013-1-5,33.3,19.4,4.8,13.8,7.4,-3.8,72,60,43,30.20,30.00,5,1,6,0.00
2013-1-6,41.2,22.0,8.2,23.5,10.6,-1.0,70,62,47,30.09,29.96,7,2,10,0.00
2013-1-7,38.1,21.1,6.1,23.4,10.7,-2.4,75,64,51,30.17,30.07,4,1,8,0.00
2013-1-8,51.3,27.6,14.4,29.1,16.9,7.2,80,65,41,30.21,30.11,5,1,8,0.00
2013-1-9,57.2,34.4,17.2,32.4,23.0,10.7,80,65,37,30.11,29.61,23,3,34,0.00
2013-1-10,37.6,30.5,19.8,30.1,14.2,4.2,74,51,28,29.84,29.66,18,6,34,0.00
2013-1-11,41.7,22.5,4.6,23.9,13.0,-3.4,84,67,42,29.98,29.83,14,4,20,0.00
2013-1-12,30.7,11.6,-3.6,14.4,-0.4,-12.9,78,59,32,30.07,29.97,4,1,8,0.00
2013-1-13,27.0,8.3,-6.0,7.8,-4.0,-34.1,68,57,10,30.17,30.00,8,2,49,0.00
2013-1-14,29.5,11.2,-6.3,6.4,-3.4,-16.4,68,53,27,30.32,30.17,6,2,11,0.00
2013-1-15,38.8,19.6,3.9,11.6,3.1,-5.1,67,51,27,30.50,30.32,3,1,7,0.00
2013-1-16,44.4,18.9,1.4,13.4,3.6,-7.2,69,53,25,30.51,30.41,4,1,8,0.00
2013-1-17,40.5,17.9,-0.2,16.2,4.3,-10.0,70,57,34,30.43,30.32,4,1,13,0.00
2013-1-18,41.4,17.8,0.3,17.1,4.7,-9.5,71,58,32,30.37,30.28,4,1,8,0.00
2013-1-19,42.8,19.0,-0.8,18.2,5.4,-10.2,72,57,30,30.38,30.27,4,1,8,0.00
2013-1-20,41.4,19.0,1.0,19.3,5.8,-8.8,72,58,33,30.34,30.26,5,1,8,0.00
2013-1-21,46.2,21.3,2.7,18.0,6.7,-5.9,73,55,25,30.31,30.19,4,1,8,0.00
2013-1-22,44.6,22.7,4.5,18.1,8.6,-3.7,73,56,24,30.20,30.07,4,1,9,0.00
2013-1-23,49.5,29.4,14.7,21.3,14.7,5.5,70,55,29,30.07,29.98,6,1,10,0.05
2013-1-24,51.6,39.1,32.0,35.9,29.7,20.6,86,70,53,30.14,30.03,3,1,10,0.02
2013-1-25,55.2,41.2,29.3,41.7,34.8,26.7,94,79,57,30.13,29.95,4,1,7,0.00
2013-1-26,63.1,42.0,24.1,40.2,28.2,20.5,90,63,24,29.95,29.72,9,3,15,0.00
2013-1-27,41.9,32.5,17.6,32.5,22.7,7.6,91,68,42,29.95,29.77,8,3,14,0.04
2013-1-28,41.7,29.1,13.1,25.6,17.7,6.7,80,63,46,30.02,29.91,8,4,17,0.00
2013-1-29,54.7,42.9,31.3,32.3,28.8,22.0,75,58,40,30.25,29.99,14,5,22,0.00
2013-1-30,62.8,41.0,23.2,35.2,28.2,19.1,89,64,29,30.29,30.22,7,2,13,0.00
2013-1-31,66.0,38.4,20.7,35.7,26.9,17.3,87,67,26,30.25,30.11,7,2,12,0.00
2013-2-1,60.3,36.7,18.9,36.7,25.8,14.4,90,68,33,30.22,30.14,5,1,10,0.00
2013-2-2,50.4,34.2,20.1,36.0,26.1,16.6,88,73,54,30.27,30.16,4,1,6,0.00
2013-2-3,60.4,34.5,18.0,36.2,23.8,13.4,89,68,31,30.16,30.08,6,1,10,0.00
2013-2-4,70.9,38.4,19.4,46.0,22.7,15.4,85,59,18,30.12,29.96,5,2,9,0.00
2013-2-5,61.5,41.4,20.3,29.8,19.3,10.8,79,47,20,29.97,29.81,7,2,17,0.00
2013-2-6,53.8,34.5,18.1,31.7,16.6,8.1,78,51,22,30.06,29.93,6,2,11,0.00
2013-2-7,55.8,35.7,14.2,24.5,14.1,4.5,69,45,20,29.93,29.75,17,4,27,0.00
2013-2-8,38.3,31.8,23.4,23.7,18.5,13.8,75,58,48,29.82,29.73,9,4,17,0.00
2013-2-9,43.2,30.4,19.0,17.3,12.6,5.5,70,49,27,29.97,29.82,9,3,17,0.00
2013-2-10,45.9,33.5,19.8,25.4,15.7,5.4,67,49,25,30.02,29.92,19,4,25,0.00
2013-2-11,46.9,28.2,10.6,21.3,8.4,1.9,70,46,22,30.14,30.01,8,2,10,0.00
2013-2-12,53.1,31.6,12.4,19.5,11.8,2.6,67,46,24,30.25,30.14,11,2,14,0.00
2013-2-13,54.9,34.8,16.2,26.3,17.2,6.9,71,51,28,30.27,30.16,8,2,11,0.00
2013-2-14,55.2,35.6,17.4,30.3,20.5,8.8,75,56,34,30.31,30.18,11,3,14,0.00
2013-2-15,57.6,36.9,17.2,30.1,20.9,9.9,78,55,29,30.35,30.22,10,2,13,0.00
2013-2-16,60.3,38.7,16.2,29.1,17.6,9.1,77,48,21,30.23,29.93,8,2,11,0.00
2013-2-17,51.8,35.3,17.2,27.4,12.9,-4.0,67,42,21,29.98,29.89,14,4,17,0.00
2013-2-18,54.9,34.1,12.6,20.1,10.7,-0.1,65,40,21,29.96,29.67,9,2,11,0.00
2013-2-19,48.4,40.2,31.6,29.3,18.5,10.3,68,43,24,29.67,29.49,22,6,27,0.00
2013-2-20,47.3,35.1,18.9,21.9,12.4,0.6,67,42,21,29.85,29.59,16,5,21,0.00
2013-2-21,48.2,31.4,12.6,16.3,8.7,1.0,63,40,22,30.00,29.82,11,2,15,0.00
2013-2-22,53.6,38.6,18.0,24.8,16.2,6.1,66,42,24,30.10,29.89,9,3,12,0.00
2013-2-23,47.7,35.5,15.3,31.7,15.8,1.4,84,47,22,30.11,29.77,21,6,25,0.01
2013-2-24,45.1,27.4,9.1,19.9,7.8,-0.3,73,47,21,30.22,30.10,8,2,11,0.00
2013-2-25,56.1,32.5,12.0,19.8,7.6,-4.3,66,38,20,30.11,29.99,15,3,22,0.00
2013-2-26,45.5,30.7,16.2,14.6,4.7,-4.3,59,34,21,30.20,30.06,11,3,14,0.00
2013-2-27,57.2,32.9,9.3,18.5,5.9,-6.2,58,34,20,30.25,30.14,10,2,12,0.00
2013-2-28,64.4,42.6,20.1,28.3,17.0,0.4,63,38,21,30.33,30.19,9,2,14,0.00
2013-3-1,68.0,45.8,23.5,36.0,26.0,14.9,75,49,23,30.37,30.22,9,2,11,0.00
2013-3-2,68.9,49.2,27.0,31.9,23.5,15.7,70,41,16,30.24,29.98,8,2,11,0.00
2013-3-3,54.0,46.4,40.1,42.9,37.4,23.9,92,73,35,29.99,29.92,10,3,14,0.13
2013-3-4,56.7,41.8,28.0,39.4,31.5,24.7,93,70,38,30.06,29.92,8,2,11,0.00
2013-3-5,69.3,46.2,22.5,37.0,25.3,18.4,88,51,16,29.92,29.66,20,5,24,0.00
2013-3-6,52.2,45.1,34.9,31.6,20.3,9.4,57,38,24,29.87,29.64,35,11,42,0.00
2013-3-7,45.0,34.9,23.9,30.7,22.4,11.7,82,61,44,29.86,29.76,10,2,12,0.00
2013-3-8,52.5,38.8,26.4,32.5,25.9,20.0,86,62,34,29.87,29.73,18,2,21,0.00
2013-3-9,55.9,39.0,18.9,22.3,12.5,-4.8,67,37,20,30.24,29.87,13,3,16,0.00
2013-3-10,59.9,39.0,16.5,19.6,10.4,1.3,57,33,20,30.33,30.21,10,2,13,0.00
2013-3-11,68.4,44.7,21.0,20.6,14.0,5.5,56,32,15,30.22,30.07,7,2,10,0.00
2013-3-12,73.2,48.8,25.2,23.8,18.0,8.8,57,33,14,30.15,30.05,8,2,10,0.00
2013-3-13,79.2,53.7,26.2,28.9,20.9,13.4,65,33,13,30.17,30.04,9,2,14,0.00
2013-3-14,71.2,52.8,34.0,29.0,23.2,19.1,58,35,15,30.11,30.06,5,1,6,0.00
2013-3-15,75.6,53.4,28.8,31.5,22.6,18.3,66,36,13,30.07,29.94,14,2,17,0.00
2013-3-16,71.6,55.1,33.4,31.0,22.2,17.9,61,31,13,30.00,29.83,19,5,26,0.00
2013-3-17,65.1,51.4,32.5,28.6,19.0,3.0,57,30,17,29.99,29.92,21,5,21,0.00
2013-3-18,65.8,47.6,23.2,25.9,15.8,3.8,54,30,17,30.03,29.91,14,3,14,0.00
2013-3-19,67.5,56.6,42.8,37.4,31.8,24.3,56,40,25,30.05,29.91,21,7,21,0.00
2013-3-20,68.0,56.6,48.2,36.8,33.0,27.7,55,42,27,29.92,29.81,39,12,39,0.00
2013-3-21,59.0,45.3,29.1,34.2,21.5,-0.3,82,43,21,30.00,29.88,18,6,18,0.00
2013-3-22,52.3,35.6,16.0,14.1,5.8,-4.5,53,30,21,30.05,29.93,18,5,18,0.00
2013-3-23,51.8,35.4,15.1,14.3,6.5,-1.7,53,31,21,30.17,30.00,15,4,15,0.00
2013-3-24,63.3,41.5,21.9,20.7,9.3,-4.3,44,27,18,30.03,29.88,12,3,12,0.00
2013-3-25,71.8,51.2,26.6,22.1,16.2,8.6,46,27,13,29.93,29.77,19,5,19,0.00
2013-3-26,68.9,57.3,44.8,28.9,23.1,16.6,52,27,18,29.86,29.77,21,8,21,0.25
2013-3-27,68.7,51.2,30.0,35.0,27.2,20.8,72,43,19,29.89,29.80,13,4,13,0.00
2013-3-28,69.4,55.7,42.8,41.3,33.0,22.9,72,45,21,30.04,29.88,24,5,24,0.01
2013-3-29,73.4,53.0,0.0,41.5,33.8,22.9,83,49,17,30.09,29.99,12,3,12,0.01
2013-3-30,77.9,56.6,32.4,32.8,27.3,20.6,67,37,16,30.06,29.85,23,4,23,0.00
2013-3-31,55.2,48.4,34.2,44.3,34.8,24.0,89,61,32,29.98,29.82,26,7,26,0.02
2013-4-1,62.4,47.9,31.5,38.1,32.8,27.1,87,60,27,30.00,29.90,21,5,21,0.00
2013-4-2,68.9,50.6,28.9,39.5,32.4,25.0,89,55,24,30.07,29.96,11,3,11,0.00
2013-4-3,76.1,55.4,33.4,40.9,28.4,20.6,72,41,14,30.06,29.91,14,4,14,0.00
2013-4-4,73.2,54.7,39.9,42.0,30.6,21.0,59,42,15,29.95,29.83,32,8,32,0.00
2013-4-5,70.5,55.0,33.4,35.0,26.2,19.4,70,37,15,30.00,29.88,21,6,21,0.00
2013-4-6,68.5,56.5,46.2,31.9,26.4,20.3,45,32,18,30.00,29.89,25,8,25,0.00
2013-4-7,71.1,54.6,37.9,34.4,26.7,20.1,64,37,15,29.95,29.60,34,12,34,0.00
2013-4-8,50.5,41.9,35.4,34.9,27.3,17.1,86,58,28,29.92,29.55,29,11,29,0.07
2013-4-9,59.9,45.6,26.8,27.6,19.6,9.9,70,39,20,30.11,29.91,25,9,25,0.00
2013-4-10,75.0,54.9,27.7,36.6,24.2,11.9,62,33,14,30.17,29.91,15,4,15,0.00
2013-4-11,64.8,54.4,42.3,45.8,33.6,20.0,92,50,19,30.01,29.86,27,6,27,0.13
2013-4-12,70.0,51.5,28.9,32.7,24.3,18.5,77,41,15,29.95,29.76,12,3,12,0.00
2013-4-13,75.0,60.8,43.3,34.6,24.8,7.1,47,26,17,29.81,29.62,29,10,29,0.00
2013-4-14,68.2,50.3,35.8,34.6,18.3,6.6,75,29,17,29.81,29.56,36,9,36,0.00
2013-4-15,51.6,40.0,33.4,37.0,32.1,26.9,92,74,49,29.73,29.61,21,8,22,0.05
2013-4-16,47.1,38.2,31.6,27.3,20.6,9.1,70,51,23,30.01,29.73,25,8,25,0.00
2013-4-17,52.5,39.6,26.8,19.2,12.0,1.3,58,34,21,30.17,30.01,22,6,22,0.00
2013-4-18,62.1,43.3,18.3,20.3,14.2,4.1,59,34,19,30.22,30.14,13,4,13,0.00
2013-4-19,75.7,54.0,28.2,31.8,22.5,12.9,59,33,14,30.18,29.93,20,6,20,0.00
2013-4-20,68.9,53.8,35.8,31.9,24.0,17.6,61,34,16,30.12,29.98,16,5,16,0.00
2013-4-21,77.9,58.4,31.8,29.6,22.7,16.8,61,30,13,30.05,29.91,27,5,27,0.00
2013-4-22,69.8,55.0,37.0,35.1,23.8,6.6,64,33,15,30.10,29.95,29,9,29,0.00
2013-4-23,64.9,48.7,28.4,19.9,11.8,0.9,35,23,17,30.14,29.90,17,5,17,0.00
2013-4-24,70.0,54.6,36.0,20.0,13.8,-0.3,27,20,14,30.04,29.88,17,6,17,0.00
2013-4-25,76.5,56.8,29.8,25.8,16.6,1.8,49,22,13,30.00,29.90,24,4,24,0.00
2013-4-26,74.5,48.7,34.2,27.7,18.2,8.0,52,32,13,30.15,30.00,11,3,11,0.00
2013-4-27,84.9,65.7,42.3,39.0,28.3,21.5,54,28,12,30.16,29.99,12,4,12,0.00
2013-4-28,81.0,70.0,59.0,28.4,25.5,21.5,29,19,13,30.03,29.88,14,5,14,0.00
2013-4-29,79.9,60.6,42.1,37.8,30.9,22.7,62,36,15,29.95,29.73,21,5,21,0.00
2013-4-30,69.1,57.5,44.4,31.5,21.6,7.1,54,27,15,30.08,29.80,26,10,26,0.00
2013-5-1,66.6,51.2,35.1,20.0,12.8,2.1,28,21,16,30.31,30.07,20,8,20,0.00
2013-5-2,62.6,40.7,25.0,19.5,6.2,-4.8,36,24,19,30.35,30.30,12,3,12,0.00
2013-5-3,82.4,61.4,33.6,30.1,20.7,9.3,55,24,12,30.12,29.88,20,5,20,0.00
2013-5-4,73.6,60.7,46.6,32.1,24.5,14.3,45,26,14,29.92,29.66,21,7,21,0.00
2013-5-5,77.9,61.1,42.8,42.0,34.4,24.2,65,40,16,29.73,29.58,29,6,29,0.00
2013-5-6,71.8,57.2,45.1,44.5,38.4,27.2,79,54,20,29.83,29.70,34,8,34,0.00
2013-5-7,63.0,53.7,47.8,47.0,42.5,39.2,86,67,45,29.91,29.83,21,8,21,0.00
2013-5-8,73.9,59.1,42.8,48.8,41.8,33.1,94,59,24,29.99,29.91,21,4,21,0.00
2013-5-9,81.9,64.3,46.4,47.3,41.4,31.8,81,48,18,30.05,29.94,21,5,21,0.00
2013-5-10,85.5,67.9,45.1,48.5,38.8,25.4,85,42,13,30.13,30.03,14,4,14,0.00
2013-5-11,89.2,69.4,45.0,45.2,36.3,26.5,72,36,12,30.15,30.03,17,3,17,0.00
2013-5-12,91.0,74.1,51.6,48.3,39.6,30.3,64,33,12,30.14,29.97,17,4,17,0.00
2013-5-13,90.1,71.9,48.6,44.2,36.7,25.7,66,32,14,30.06,29.91,24,6,24,0.00
2013-5-14,86.5,69.3,48.7,43.8,36.3,27.8,62,33,14,29.98,29.81,30,5,30,0.00
2013-5-15,84.4,68.8,54.7,46.2,33.6,18.3,61,31,12,29.92,29.82,32,10,32,0.00
2013-5-16,66.0,59.5,51.6,50.1,41.3,31.6,74,52,31,29.89,29.80,21,6,21,0.05
2013-5-17,73.6,59.6,45.1,47.6,36.7,23.1,87,48,17,29.95,29.79,20,6,20,0.00
2013-5-18,75.6,60.4,43.0,40.2,34.3,25.1,68,41,17,30.02,29.90,20,5,20,0.00
2013-5-19,72.5,60.2,48.2,41.0,31.3,19.9,69,38,14,30.13,30.01,24,8,24,0.00
2013-5-20,78.1,59.3,37.6,34.2,27.7,21.1,65,34,14,30.14,29.90,10,3,10,0.00
2013-5-21,82.4,64.1,43.7,33.3,27.2,18.7,62,29,13,29.90,29.67,41,10,41,0.00
2013-5-22,64.4,53.3,39.6,36.4,17.7,6.2,69,25,18,29.85,29.70,24,8,24,0.00
2013-5-23,67.1,50.9,27.0,22.5,16.4,1.8,49,27,16,29.93,29.74,22,5,22,0.00
2013-5-24,80.1,58.2,31.3,27.8,22.0,16.5,61,29,13,29.92,29.75,21,5,21,0.00
2013-5-25,77.4,62.9,39.0,30.9,23.4,14.2,54,24,14,29.90,29.77,19,5,19,0.00
2013-5-26,77.2,61.9,40.3,37.0,28.3,20.1,65,31,15,29.97,29.83,28,8,28,0.00
2013-5-27,70.9,57.0,38.1,46.2,36.8,24.3,77,49,18,29.98,29.82,30,6,30,0.01
2013-5-28,71.2,59.8,50.7,46.9,39.3,27.5,83,51,22,29.86,29.79,18,6,18,0.06
2013-5-29,77.4,63.8,48.7,45.1,35.2,22.6,69,39,16,29.85,29.75,22,6,22,0.00
2013-5-30,81.0,64.2,41.2,41.8,32.0,21.3,77,36,13,29.96,29.81,13,4,13,0.00
2013-5-31,81.7,65.0,43.7,35.8,24.7,15.5,49,23,12,30.09,29.96,16,4,16,0.00
2013-6-1,87.4,67.4,42.1,37.3,29.0,17.7,57,27,13,30.04,29.83,10,3,10,0.00
2013-6-2,93.4,74.5,47.8,45.6,35.8,21.6,66,29,12,29.83,29.65,24,5,24,0.00
2013-6-3,87.1,72.2,56.5,37.6,27.8,20.1,31,20,14,29.93,29.79,17,7,17,0.00
2013-6-4,91.2,73.4,45.1,36.7,28.0,16.6,53,20,11,29.94,29.83,20,5,20,0.00
2013-6-5,92.7,74.9,49.6,45.5,33.6,23.2,52,25,12,30.01,29.86,16,4,16,0.00
2013-6-6,97.7,77.8,50.0,46.3,37.8,30.6,63,28,12,29.96,29.82,20,4,20,0.00
2013-6-7,100.4,81.6,59.7,47.0,38.6,33.4,51,26,11,29.95,29.81,15,4,15,0.00
2013-6-8,97.2,82.7,58.5,52.1,40.4,25.3,54,24,12,29.96,29.83,15,5,15,0.00
2013-6-9,102.0,81.1,55.4,48.1,38.1,23.1,52,24,11,29.89,29.69,43,5,43,0.00
2013-6-10,90.7,73.3,61.0,55.0,47.7,41.0,57,41,22,29.85,29.65,33,10,33,0.00
2013-6-11,90.5,72.6,51.1,50.7,42.8,34.6,75,39,14,29.89,29.80,26,7,26,0.00
2013-6-12,89.8,73.8,54.0,46.7,36.4,18.5,64,29,14,29.89,29.76,34,10,34,0.00
2013-6-13,81.7,66.3,42.4,36.8,26.0,18.2,61,25,12,30.04,29.90,24,6,24,0.00
2013-6-14,79.7,64.1,45.3,36.9,27.8,19.9,50,27,14,30.08,29.87,16,6,16,0.00
2013-6-15,88.2,70.0,43.0,37.8,26.3,14.6,53,22,12,29.91,29.79,17,4,17,0.00
2013-6-16,88.2,73.5,52.3,36.8,29.0,21.1,33,20,13,29.99,29.89,17,6,17,0.00
2013-6-17,89.4,72.2,48.4,40.9,32.4,21.5,59,27,12,30.01,29.83,27,6,27,0.00
2013-6-18,86.4,66.8,44.2,42.7,30.1,21.4,62,29,13,29.90,29.67,40,8,40,0.00
2013-6-19,76.1,60.9,39.9,35.7,27.3,21.2,63,30,14,29.93,29.81,25,5,25,0.00
2013-6-20,78.1,61.9,40.3,36.4,30.3,25.2,61,33,16,29.97,29.82,21,4,21,0.00
2013-6-21,78.6,63.7,44.6,40.2,31.7,19.9,66,34,14,30.00,29.87,23,5,23,0.00
2013-6-22,83.7,66.9,44.4,39.1,31.6,22.4,57,29,13,30.00,29.81,15,4,15,0.00
2013-6-23,81.9,67.4,47.5,59.6,38.0,30.9,59,36,17,29.82,29.69,27,6,27,0.00
2013-6-24,69.4,59.9,47.7,53.9,45.7,35.8,79,60,40,29.84,29.72,11,3,11,0.04
2013-6-25,84.2,68.9,52.0,55.7,50.2,44.0,90,56,27,29.94,29.83,32,9,32,0.00
2013-6-26,94.3,74.0,49.3,53.3,45.8,33.3,82,43,14,30.02,29.91,17,4,17,0.00
2013-6-27,99.5,80.1,55.8,52.1,43.8,35.1,66,32,11,30.11,29.98,12,3,12,0.00
2013-6-28,104.4,84.6,64.0,53.8,42.6,34.2,49,26,11,30.08,29.88,31,5,31,0.00
2013-6-29,103.8,86.3,64.4,58.2,48.6,35.1,60,30,11,29.99,29.85,19,4,19,0.00
2013-6-30,104.7,86.2,63.1,54.0,44.9,35.6,51,26,12,29.95,29.77,22,4,22,0.00
2013-7-1,107.9,88.8,65.5,57.2,45.2,25.8,57,25,7,30.01,29.85,30,5,30,0.00
2013-7-2,104.5,86.6,67.4,58.0,50.2,34.8,61,31,10,30.04,29.87,43,6,43,0.00
2013-7-3,100.4,83.1,65.8,62.0,55.6,44.5,66,41,21,30.06,29.83,13,4,13,0.00
2013-7-4,96.8,79.3,64.9,63.2,57.2,51.2,77,49,25,29.95,29.75,15,4,15,0.06
2013-7-5,96.8,79.0,59.5,62.3,51.4,33.0,87,46,13,29.83,29.66,17,4,17,0.00
2013-7-6,98.4,77.7,53.2,52.3,40.1,28.7,66,31,12,29.81,29.67,20,4,20,0.00
2013-7-7,96.8,79.2,56.5,50.7,40.0,32.9,62,28,12,29.88,29.73,19,4,19,0.00
2013-7-8,93.0,76.5,55.6,63.1,43.9,33.6,62,35,13,29.98,29.87,11,2,11,0.00
2013-7-9,97.0,80.0,58.3,50.4,39.4,30.3,55,27,12,30.06,29.93,17,5,17,0.00
2013-7-10,95.5,78.8,54.3,49.7,41.9,34.9,63,30,14,30.05,29.87,20,5,20,0.00
2013-7-11,92.8,79.8,69.1,56.9,43.7,22.5,59,30,13,29.93,29.79,17,5,17,0.00
2013-7-12,94.8,76.6,55.8,49.5,36.5,22.6,57,26,12,29.94,29.79,18,4,18,0.00
2013-7-13,93.0,75.4,50.9,44.2,34.4,22.7,57,26,12,29.99,29.86,10,3,10,0.00
2013-7-14,95.0,76.8,53.4,53.0,38.6,29.9,61,29,12,30.02,29.85,11,3,11,0.00
2013-7-15,97.3,80.6,59.9,51.2,41.4,33.3,54,29,12,29.91,29.69,13,4,13,0.00
2013-7-16,96.4,81.6,62.1,50.4,40.5,23.9,51,25,12,29.95,29.76,21,5,21,0.00
2013-7-17,95.5,74.7,49.6,47.8,34.7,19.9,63,28,11,30.06,29.94,12,3,12,0.00
2013-7-18,100.8,79.9,56.3,57.5,36.9,23.4,59,25,11,30.04,29.87,9,3,9,0.00
2013-7-19,102.4,83.5,57.7,57.2,41.4,27.6,62,26,11,29.96,29.79,11,3,13,0.00
2013-7-20,105.4,86.2,62.4,63.3,41.5,30.3,58,24,11,29.89,29.73,13,3,13,0.00
2013-7-21,105.8,86.9,66.7,58.0,42.6,31.9,48,24,11,29.86,29.73,25,3,25,0.00
2013-7-22,102.4,87.4,65.3,59.1,48.4,35.6,55,28,11,29.92,29.77,21,5,21,0.00
2013-7-23,90.7,80.8,72.0,58.0,50.6,42.3,54,36,21,30.00,29.89,20,6,20,0.00
2013-7-24,96.4,80.2,60.1,60.5,53.5,46.1,78,44,18,29.99,29.88,17,4,17,0.00
2013-7-25,97.5,80.3,60.1,61.4,51.4,44.9,70,39,19,30.04,29.93,44,5,44,0.00
2013-7-26,100.9,80.1,63.1,59.4,54.7,41.7,70,45,15,30.08,29.93,28,6,28,0.07
2013-7-27,95.5,79.1,60.4,61.8,53.6,37.1,85,47,14,30.05,29.81,16,4,16,0.00
2013-7-28,95.7,79.4,61.9,54.7,48.1,36.5,58,35,14,29.88,29.74,36,5,36,0.00
2013-7-29,94.8,78.7,59.2,54.0,42.3,26.3,67,31,13,29.99,29.82,24,6,24,0.00
2013-7-30,94.1,76.4,52.9,52.2,40.3,27.4,64,31,14,30.08,29.94,13,3,13,0.00
2013-7-31,94.1,78.8,62.1,47.6,41.0,28.7,52,28,14,30.03,29.85,17,4,17,0.00
2013-8-1,86.9,71.9,49.8,48.8,34.5,18.6,70,30,12,29.97,29.85,27,7,27,0.00
2013-8-2,89.1,68.2,44.1,42.2,33.6,24.3,65,32,12,29.99,29.85,11,3,11,0.00
2013-8-3,91.8,73.3,49.3,42.5,33.8,23.9,61,27,11,29.97,29.85,11,3,11,0.00
2013-8-4,95.2,75.9,51.3,50.7,38.7,30.3,68,31,12,30.62,29.84,11,3,11,0.00
2013-8-5,95.5,77.4,56.7,53.5,38.5,25.9,57,29,11,29.98,29.84,11,3,11,0.00
2013-8-6,96.1,79.7,62.2,58.9,40.7,30.9,51,28,12,29.95,29.80,15,4,15,0.00
2013-8-7,92.3,79.3,64.2,48.1,36.3,28.6,49,22,12,29.94,29.82,21,7,21,0.00
2013-8-8,90.9,72.6,53.8,51.8,41.8,27.9,64,35,19,29.93,29.77,31,5,31,0.00
2013-8-9,88.7,72.1,53.4,50.9,44.0,32.6,70,40,17,29.90,29.78,43,4,43,0.00
2013-8-10,88.2,72.1,50.7,45.4,37.4,25.8,65,32,13,29.98,29.85,12,4,12,0.00
2013-8-11,89.1,71.8,50.2,46.6,38.7,29.7,65,34,14,30.00,29.84,17,3,17,0.00
2013-8-12,91.6,72.4,54.0,46.2,40.1,31.2,59,35,12,29.97,29.86,19,3,19,0.00
2013-8-13,93.2,74.3,51.8,52.1,38.8,25.4,65,32,11,30.02,29.88,11,3,11,0.00
2013-8-14,96.8,76.7,55.9,53.2,38.0,26.3,56,29,12,30.00,29.84,10,3,10,0.00
2013-8-15,96.6,75.8,50.0,47.3,36.1,24.6,64,28,12,29.98,29.85,20,3,20,0.00
2013-8-16,95.0,74.3,50.2,51.5,35.5,20.4,66,30,12,30.03,29.91,11,3,11,0.00
2013-8-17,94.3,73.7,57.2,57.9,40.9,25.5,55,34,14,30.01,29.85,15,2,15,0.00
2013-8-18,98.6,79.6,54.7,54.0,42.7,32.2,65,32,12,29.99,29.86,20,4,20,0.00
2013-8-19,94.5,80.0,67.6,56.2,50.7,44.8,54,37,23,30.03,29.89,17,5,17,0.00
2013-8-20,96.8,81.1,64.0,57.4,52.3,45.5,62,39,19,29.96,29.80,43,6,43,0.00
2013-8-21,90.0,74.7,57.9,60.6,55.1,46.1,84,54,25,30.02,29.87,17,4,17,0.01
2013-8-22,90.9,75.6,58.8,56.7,49.2,37.1,76,43,20,29.98,29.81,21,6,21,0.00
2013-8-23,89.6,71.0,50.9,54.3,41.2,31.3,68,38,13,29.91,29.76,9,3,9,0.00
2013-8-24,88.0,68.8,49.5,46.6,39.6,30.2,70,39,13,29.88,29.75,12,3,12,0.00
2013-8-25,87.4,67.9,48.7,47.4,41.1,35.8,75,42,18,29.93,29.83,17,4,17,0.00
2013-8-26,89.6,69.9,47.3,52.0,42.9,35.4,78,43,16,29.99,29.85,14,3,14,0.00
2013-8-27,90.7,70.0,51.1,58.0,47.9,39.4,74,49,23,29.94,29.77,32,3,32,0.00
2013-8-28,92.7,74.7,59.4,61.4,53.9,46.1,83,53,22,29.94,29.82,13,4,13,0.00
2013-8-29,93.0,74.6,56.5,56.5,47.0,32.9,72,41,16,30.04,29.93,11,2,11,0.00
2013-8-30,93.7,72.9,53.8,63.5,44.7,34.7,71,40,14,30.08,29.92,8,2,8,0.00
2013-8-31,93.2,74.8,53.4,61.6,43.6,33.5,66,36,15,30.01,29.85,9,2,15,0.00
2013-9-1,93.7,76.7,58.1,56.3,48.8,35.0,65,40,19,29.94,29.81,18,4,18,0.00
2013-9-2,90.3,77.3,62.6,61.3,55.1,49.3,72,48,26,29.93,29.81,17,4,17,0.00
2013-9-3,88.9,74.0,61.5,61.3,57.1,53.3,79,57,32,29.97,29.85,26,5,26,0.00
2013-9-4,90.9,73.6,57.9,61.9,56.6,51.7,85,58,27,30.01,29.86,17,3,17,0.02
2013-9-5,92.8,74.1,53.8,58.0,46.2,28.7,86,45,13,29.96,29.82,29,8,29,0.00
2013-9-6,88.0,70.5,47.8,48.9,37.7,28.8,65,32,19,30.04,29.88,12,4,12,0.00
2013-9-7,90.3,69.4,47.1,48.2,37.5,29.6,66,34,12,30.00,29.84,8,2,8,0.00
2013-9-8,92.3,70.8,48.7,48.2,37.9,19.9,69,36,11,29.96,29.83,14,3,14,0.00
2013-9-9,88.0,71.4,52.9,48.8,38.5,29.5,54,31,18,29.96,29.82,19,4,19,0.00
2013-9-10,89.1,69.2,46.6,46.7,39.5,32.1,69,37,14,29.93,29.83,14,3,14,0.00
2013-9-11,90.1,72.8,51.8,50.0,40.8,34.4,64,35,14,29.96,29.87,15,4,15,0.00
2013-9-12,86.7,71.0,59.7,59.0,52.8,45.7,76,54,30,29.96,29.87,21,3,21,0.02
2013-9-13,87.8,68.4,51.4,59.6,53.9,47.5,91,64,28,29.93,29.79,17,3,17,0.01
2013-9-14,89.2,70.0,52.5,56.6,51.4,45.0,89,57,22,29.87,29.75,9,2,9,0.00
2013-9-15,92.8,73.5,52.2,54.4,46.0,36.0,80,42,15,29.83,29.72,21,4,21,0.00
2013-9-16,92.5,70.1,47.8,48.1,41.0,32.9,73,40,14,29.89,29.71,10,2,10,0.00
2013-9-17,84.2,67.1,50.2,49.0,36.7,19.9,72,38,14,29.90,29.64,32,8,32,0.00
2013-9-18,72.0,56.6,40.1,42.6,34.7,23.5,79,47,17,30.00,29.89,14,4,14,0.00
2013-9-19,80.8,57.7,35.1,36.2,30.2,25.6,74,40,14,30.01,29.84,12,2,12,0.00
2013-9-20,87.8,64.3,39.2,38.0,31.8,25.3,75,37,13,29.85,29.64,24,6,24,0.00
2013-9-21,75.7,56.7,40.3,46.6,37.8,29.0,84,54,20,29.76,29.62,34,5,34,0.06
2013-9-22,71.1,54.6,40.3,43.2,38.2,29.3,83,58,22,29.93,29.76,11,4,11,0.00
2013-9-23,77.9,56.8,37.8,46.2,39.2,34.1,88,57,21,30.01,29.88,13,2,13,0.00
2013-9-24,81.0,61.9,41.9,44.4,33.1,19.9,75,40,14,29.90,29.71,36,10,36,0.00
2013-9-25,62.6,50.7,37.0,40.9,30.9,21.0,82,49,24,29.79,29.72,21,6,21,0.00
2013-9-26,57.6,45.2,34.7,42.1,31.4,24.6,76,59,40,29.97,29.77,18,4,18,0.01
2013-9-27,63.5,46.2,29.3,37.3,29.3,24.1,82,56,24,30.09,29.97,12,3,12,0.00
2013-9-28,77.4,55.5,29.8,35.9,29.4,23.2,78,44,17,30.06,29.91,14,4,14,0.00
2013-9-29,79.3,68.0,59.5,35.5,28.8,23.1,33,23,16,29.97,29.87,30,12,30,0.00
2013-9-30,76.8,65.6,48.6,42.0,33.1,24.5,64,31,18,29.94,29.87,30,8,30,0.00
2013-10-1,77.7,57.7,36.3,44.9,35.4,26.5,86,48,20,29.93,29.83,11,3,11,0.00
2013-10-2,74.3,55.0,35.4,34.5,27.0,14.8,72,38,13,29.95,29.78,27,5,27,0.00
2013-10-3,59.4,47.4,37.0,28.7,21.2,15.7,56,36,22,30.14,29.91,19,6,19,0.00
2013-10-4,59.9,44.1,29.5,29.9,21.4,14.9,63,42,23,30.28,30.14,16,4,16,0.00
2013-10-5,67.3,45.6,24.4,27.4,20.4,12.7,67,41,17,30.34,30.20,11,3,11,0.00
2013-10-6,77.2,50.0,26.4,32.3,23.2,17.2,72,41,14,30.21,29.99,8,2,8,0.00
2013-10-7,77.2,54.8,35.1,32.0,23.8,16.5,67,35,13,30.00,29.83,8,2,8,0.00
2013-10-8,65.7,53.8,36.0,31.6,24.6,18.5,60,33,22,29.93,29.65,17,4,17,0.00
2013-10-9,57.6,49.4,43.5,42.6,33.8,18.2,81,56,30,29.70,29.59,24,8,24,0.00
2013-10-10,67.6,51.6,34.0,37.2,29.6,19.7,77,46,22,29.90,29.69,21,4,21,0.00
2013-10-11,67.3,49.6,31.1,38.3,29.5,23.3,77,49,24,29.99,29.89,10,3,10,0.00
2013-10-12,70.0,52.0,32.2,37.6,28.3,20.1,73,46,15,29.92,29.76,21,4,21,0.00
2013-10-13,59.0,46.2,33.6,40.1,34.3,25.8,84,64,43,30.08,29.86,14,4,14,0.00
2013-10-14,61.5,44.8,27.1,38.9,29.1,21.8,87,58,27,30.17,30.07,13,3,13,0.00
2013-10-15,61.3,42.9,26.6,31.8,22.8,17.0,76,49,22,30.16,30.08,15,3,15,0.00
2013-10-16,66.7,44.2,21.7,29.4,21.3,12.9,71,45,18,30.12,30.01,14,2,14,0.00
2013-10-17,70.0,47.6,28.9,27.9,21.6,16.5,68,41,15,30.08,30.00,12,3,12,0.00
2013-10-18,70.2,46.7,26.4,29.9,22.2,15.5,70,42,16,30.15,30.04,9,2,9,0.00
2013-10-19,71.1,46.8,24.6,30.2,20.8,14.4,70,42,15,30.13,30.03,10,2,10,0.00
2013-10-20,73.8,50.0,28.0,27.7,21.2,14.8,62,37,14,30.06,29.96,12,3,12,0.00
2013-10-21,72.9,50.4,29.7,28.3,22.2,17.4,64,38,14,30.09,29.99,8,2,8,0.00
2013-10-22,73.2,50.6,32.0,33.2,24.6,20.7,66,42,15,30.10,29.97,9,2,9,0.00
2013-10-23,73.8,50.5,30.9,31.4,23.9,19.9,67,41,14,30.03,29.92,8,2,8,0.00
2013-10-24,73.9,50.4,31.1,32.1,22.8,19.1,64,39,14,30.04,29.95,10,2,10,0.00
2013-10-25,74.8,50.9,28.9,29.3,21.8,16.9,64,36,14,30.14,30.03,7,2,7,0.00
2013-10-26,72.7,49.0,28.8,25.8,19.7,14.4,63,36,13,30.19,30.03,8,2,8,0.00
2013-10-27,75.7,52.1,29.7,34.2,22.2,17.1,71,37,13,30.03,29.47,33,8,33,0.00
2013-10-28,49.1,40.4,35.2,37.2,34.6,31.4,92,80,58,29.71,29.46,29,8,29,0.22
2013-10-29,39.6,36.9,33.1,36.7,33.5,30.1,92,87,82,29.98,29.71,8,2,8,0.31
2013-10-30,50.2,39.8,30.2,36.3,32.0,26.8,89,75,53,30.10,29.97,11,3,11,0.00
2013-10-31,56.5,40.1,26.2,39.7,32.0,22.7,94,75,44,30.19,30.09,8,2,8,0.00
2013-11-1,60.8,42.2,27.1,42.7,34.2,23.3,95,76,47,30.20,30.02,8,2,8,0.00
2013-11-2,54.7,34.6,27.3,44.7,31.0,23.7,95,87,61,30.02,29.91,9,2,9,0.00
2013-11-3,50.4,43.1,36.5,35.7,23.3,13.6,66,47,23,29.99,29.86,14,6,14,0.00
2013-11-4,49.8,38.6,24.4,24.9,20.0,14.2,68,49,27,30.08,29.88,18,5,18,0.00
2013-11-5,54.0,36.0,19.0,27.9,19.5,11.9,79,55,23,30.19,30.06,11,2,11,0.00
2013-11-6,60.3,40.4,23.9,33.0,24.3,17.7,82,56,25,30.26,30.16,11,2,11,0.00
2013-11-7,60.4,45.2,34.0,35.0,30.7,24.8,79,59,33,30.16,29.96,11,3,11,0.00
2013-11-8,66.4,46.0,28.6,34.6,26.3,21.6,76,51,21,30.02,29.89,8,3,8,0.00
2013-11-9,63.3,42.7,25.0,36.5,27.1,18.5,82,58,26,30.04,29.96,9,2,9,0.00
2013-11-10,66.4,43.1,24.6,36.1,25.5,18.7,83,55,19,30.10,30.02,11,2,11,0.00
2013-11-11,65.5,42.9,25.0,33.9,24.3,18.2,80,53,20,30.15,30.08,11,2,11,0.00
2013-11-12,60.6,44.0,32.9,34.1,28.8,23.2,74,57,27,30.26,30.14,14,2,14,0.00
2013-11-13,64.4,43.4,27.5,34.1,27.1,19.5,77,56,27,30.22,30.12,11,3,11,0.00
2013-11-14,65.5,46.0,25.0,35.7,26.8,17.1,85,52,25,30.12,29.75,17,4,17,0.00
2013-11-15,49.1,40.5,32.0,35.8,28.2,19.7,87,63,40,29.84,29.65,17,5,17,0.00
2013-11-16,60.6,46.0,33.1,33.5,26.8,21.0,72,50,26,29.81,29.59,15,5,15,0.00
2013-11-17,62.4,40.7,24.8,32.9,24.9,17.0,78,56,25,29.99,29.81,9,2,9,0.00
2013-11-18,59.4,41.2,22.3,34.1,27.4,16.1,82,60,34,29.98,29.88,8,2,8,0.00
2013-11-19,60.6,48.9,40.6,42.0,34.5,31.5,84,59,38,29.93,29.82,11,3,11,0.05
2013-11-20,59.0,47.4,34.2,46.5,41.6,30.8,93,81,54,29.85,29.73,21,7,21,0.50
2013-11-21,34.0,30.7,24.8,31.1,26.5,16.4,95,85,70,30.16,29.84,11,0,16,0.05
2013-11-22,39.7,28.9,18.9,25.7,18.8,10.6,82,67,46,30.22,30.08,11,1,11,0.05
2013-11-23,46.8,32.4,21.9,26.5,20.3,13.0,81,63,38,30.09,30.02,11,2,11,0.00
2013-11-24,45.7,32.8,19.9,31.4,22.9,15.9,86,69,36,30.16,30.05,8,2,8,0.00
2013-11-25,46.6,31.5,20.5,33.5,23.9,16.7,87,75,49,30.28,30.19,7,2,7,0.00
2013-11-26,47.3,33.0,21.7,35.0,25.5,17.7,88,75,49,30.24,30.04,8,2,8,0.00
2013-11-27,50.0,33.8,23.7,36.8,26.9,19.3,87,76,56,30.04,29.88,10,2,10,0.00
2013-11-28,52.0,34.3,25.0,37.7,27.2,20.6,89,76,52,30.05,29.91,8,2,8,0.01
2013-11-29,52.7,35.6,23.9,37.0,28.0,19.5,88,75,52,30.17,30.04,9,2,9,0.00
2013-11-30,52.2,34.5,21.7,37.3,27.1,17.4,88,75,52,30.22,30.13,8,2,8,0.00
2013-12-1,55.0,36.9,21.6,36.7,27.5,17.0,87,70,43,30.27,30.12,9,2,9,0.01
2013-12-2,68.0,50.0,30.6,34.6,26.6,19.5,75,45,17,30.12,29.69,28,9,28,0.00
2013-12-3,51.4,30.8,17.6,37.5,23.2,9.9,88,74,55,29.76,29.60,30,8,30,0.00
2013-12-4,27.5,21.0,13.8,17.3,11.0,4.1,76,65,52,29.93,29.75,21,4,21,0.00
2013-12-5,29.3,21.5,14.4,13.5,9.0,3.2,75,59,40,29.96,29.90,11,3,11,0.00
2013-12-6,32.2,24.3,12.2,18.3,12.5,5.3,77,61,49,29.93,29.63,21,6,21,0.00
2013-12-7,33.1,24.7,3.0,25.6,14.1,-7.3,88,65,43,29.99,29.58,19,6,19,0.04
2013-12-8,19.8,6.1,-5.6,6.7,-4.8,-14.5,70,60,48,30.22,29.98,10,2,10,0.00
2013-12-9,18.0,4.0,-7.4,5.1,-6.4,-17.0,67,61,53,30.35,30.22,11,2,11,0.00
2013-12-10,23.4,8.9,-4.7,9.4,-1.5,-13.6,68,62,54,30.30,30.17,7,2,7,0.00
2013-12-11,25.5,10.3,-1.3,10.4,-0.5,-10.7,71,61,50,30.28,30.20,6,2,6,0.00
2013-12-12,26.8,11.4,-0.4,11.6,0.7,-10.2,69,62,51,30.22,30.09,6,2,6,0.00
2013-12-13,32.2,14.9,2.3,20.7,5.9,-5.9,78,67,54,30.32,30.08,6,2,6,0.00
2013-12-14,32.9,16.4,4.3,19.4,6.9,-3.8,75,66,56,30.41,30.32,7,2,7,0.00
2013-12-15,35.2,18.9,6.8,21.0,9.4,-1.4,76,66,54,30.39,30.28,7,2,7,0.00
2013-12-16,36.3,19.8,7.3,22.7,10.8,-0.9,77,68,55,30.35,30.27,7,2,7,0.00
2013-12-17,34.9,21.7,10.2,24.0,14.1,2.5,78,72,62,30.30,30.06,6,1,6,0.00
2013-12-18,34.5,27.5,18.3,26.1,20.7,11.5,80,75,65,30.06,29.61,12,3,12,0.00
2013-12-19,36.9,29.7,13.5,28.1,19.0,4.9,85,65,47,29.93,29.61,27,8,27,0.00
2013-12-20,35.6,22.6,7.5,19.9,11.0,-1.0,73,61,44,29.99,29.84,8,2,8,0.00
2013-12-21,52.2,33.2,16.9,34.7,22.9,9.0,79,66,46,30.00,29.83,8,3,8,0.00
2013-12-22,52.2,33.6,20.3,34.5,24.4,14.8,85,70,48,30.26,30.03,8,2,8,0.00
2013-12-23,50.2,32.7,20.1,36.2,24.8,15.0,84,73,56,30.31,30.24,8,2,8,0.00
2013-12-24,48.4,31.0,20.8,36.9,24.1,15.7,88,76,57,30.36,30.25,8,2,8,0.00
2013-12-25,44.4,28.6,18.9,34.1,21.7,12.3,84,75,63,30.38,30.29,7,2,7,0.00
2013-12-26,33.3,24.3,19.0,29.3,19.5,12.2,86,81,74,30.34,30.26,7,2,7,0.01
2013-12-27,29.1,24.7,19.6,25.5,20.1,14.7,86,82,81,30.26,30.05,4,1,4,0.00
2013-12-28,32.4,26.4,21.7,28.7,22.2,17.2,87,84,82,30.22,30.03,6,1,6,0.01
2013-12-29,30.7,23.3,17.8,27.3,18.8,11.6,87,83,76,30.26,30.18,0,0,0,0.00
2013-12-30,34.2,25.7,18.3,30.4,21.4,12.4,88,83,77,30.22,30.13,5,1,5,0.01
2013-12-31,46.4,30.9,21.9,35.5,24.1,17.9,87,76,57,30.19,30.10,7,2,8,0.00
2014-1-1,48.2,30.6,18.7,33.2,22.0,12.1,84,71,49,30.22,30.14,9,2,9,0.01
2014-1-2,50.0,32.4,20.7,32.3,22.6,15.2,83,68,45,30.18,30.05,8,2,8,0.00